sensor_id;sensor_type;location;lat;lon;timestamp;temperature;humidity
33803;DHT22;20110;53.120;5.786;2022-10-24T00:00:19;12.50;99.90
33803;DHT22;20110;53.120;5.786;2022-10-24T00:02:44;12.50;99.90
33803;DHT22;20110;53.120;5.786;2022-10-24T00:05:13;12.50;99.90
33803;DHT22;20110;53.120;5.786;2022-10-24T00:07:40;12.50;99.90
33803;DHT22;20110;53.120;5.786;2022-10-24T00:10:07;12.50;99.90
33803;DHT22;20110;53.120;5.786;2022-10-24T00:12:34;12.60;99.90
33803;DHT22;20110;53.120;5.786;2022-10-24T00:15:00;12.60;99.90
33803;DHT22;20110;53.120;5.786;2022-10-24T00:17:25;12.60;99.90
33803;DHT22;20110;53.120;5.786;2022-10-24T00:19:51;12.70;99.90
33803;DHT22;20110;53.120;5.786;2022-10-24T00:22:19;12.70;99.90
33803;DHT22;20110;53.120;5.786;2022-10-24T00:24:45;12.80;99.90
33803;DHT22;20110;53.120;5.786;2022-10-24T00:27:11;12.90;99.90
33803;DHT22;20110;53.120;5.786;2022-10-24T00:29:37;13.00;99.90
33803;DHT22;20110;53.120;5.786;2022-10-24T00:32:03;13.00;99.90
33803;DHT22;20110;53.120;5.786;2022-10-24T00:34:29;13.10;99.90
33803;DHT22;20110;53.120;5.786;2022-10-24T00:36:55;13.20;99.90
33803;DHT22;20110;53.120;5.786;2022-10-24T00:39:20;13.10;99.90
33803;DHT22;20110;53.120;5.786;2022-10-24T00:41:46;13.10;99.90
33803;DHT22;20110;53.120;5.786;2022-10-24T00:47:00;13.10;99.90
33803;DHT22;20110;53.120;5.786;2022-10-24T00:52:41;13.10;99.90
33803;DHT22;20110;53.120;5.786;2022-10-24T00:55:10;13.10;99.90
33803;DHT22;20110;53.120;5.786;2022-10-24T00:57:50;12.90;99.90
33803;DHT22;20110;53.120;5.786;2022-10-24T01:00:27;12.90;99.90
33803;DHT22;20110;53.120;5.786;2022-10-24T01:02:56;12.80;99.90
33803;DHT22;20110;53.120;5.786;2022-10-24T01:05:26;12.70;99.90
33803;DHT22;20110;53.120;5.786;2022-10-24T01:14:52;12.80;99.90
33803;DHT22;20110;53.120;5.786;2022-10-24T01:18:05;12.80;99.90
33803;DHT22;20110;53.120;5.786;2022-10-24T01:35:48;13.20;99.90
33803;DHT22;20110;53.120;5.786;2022-10-24T01:38:33;13.10;99.90
33803;DHT22;20110;53.120;5.786;2022-10-24T01:41:08;13.20;99.90
33803;DHT22;20110;53.120;5.786;2022-10-24T01:43:41;13.30;99.90
33803;DHT22;20110;53.120;5.786;2022-10-24T01:46:16;13.30;99.90
33803;DHT22;20110;53.120;5.786;2022-10-24T01:48:50;13.40;99.90
33803;DHT22;20110;53.120;5.786;2022-10-24T01:51:23;13.40;99.90
33803;DHT22;20110;53.120;5.786;2022-10-24T01:53:51;13.40;99.90
33803;DHT22;20110;53.120;5.786;2022-10-24T01:56:18;13.40;99.90
33803;DHT22;20110;53.120;5.786;2022-10-24T01:58:44;13.40;99.90
33803;DHT22;20110;53.120;5.786;2022-10-24T02:01:15;13.40;99.90
33803;DHT22;20110;53.120;5.786;2022-10-24T02:03:55;13.40;99.90
33803;DHT22;20110;53.120;5.786;2022-10-24T02:06:30;13.30;99.90
33803;DHT22;20110;53.120;5.786;2022-10-24T02:09:06;13.30;99.90
33803;DHT22;20110;53.120;5.786;2022-10-24T02:11:36;13.30;99.90
33803;DHT22;20110;53.120;5.786;2022-10-24T02:14:04;13.30;99.90
33803;DHT22;20110;53.120;5.786;2022-10-24T02:16:32;13.30;99.90
33803;DHT22;20110;53.120;5.786;2022-10-24T02:19:00;13.30;99.90
33803;DHT22;20110;53.120;5.786;2022-10-24T02:24:41;13.40;99.90
33803;DHT22;20110;53.120;5.786;2022-10-24T02:27:40;13.40;99.90
33803;DHT22;20110;53.120;5.786;2022-10-24T02:30:26;13.30;99.90
33803;DHT22;20110;53.120;5.786;2022-10-24T02:32:57;13.30;99.90
33803;DHT22;20110;53.120;5.786;2022-10-24T02:35:27;13.30;99.90
33803;DHT22;20110;53.120;5.786;2022-10-24T02:38:26;13.30;99.90
33803;DHT22;20110;53.120;5.786;2022-10-24T02:40:58;13.20;99.90
33803;DHT22;20110;53.120;5.786;2022-10-24T02:43:28;13.20;99.90
33803;DHT22;20110;53.120;5.786;2022-10-24T02:45:57;13.10;99.90
33803;DHT22;20110;53.120;5.786;2022-10-24T02:48:27;13.20;99.90
33803;DHT22;20110;53.120;5.786;2022-10-24T02:50:58;13.20;99.90
33803;DHT22;20110;53.120;5.786;2022-10-24T02:53:25;13.10;99.90
33803;DHT22;20110;53.120;5.786;2022-10-24T02:55:52;13.10;99.90
33803;DHT22;20110;53.120;5.786;2022-10-24T02:58:19;13.00;99.90
33803;DHT22;20110;53.120;5.786;2022-10-24T03:00:44;13.00;99.90
33803;DHT22;20110;53.120;5.786;2022-10-24T03:03:10;13.00;99.90
33803;DHT22;20110;53.120;5.786;2022-10-24T03:05:36;13.10;99.90
33803;DHT22;20110;53.120;5.786;2022-10-24T03:08:02;13.10;99.90
33803;DHT22;20110;53.120;5.786;2022-10-24T03:10:28;13.10;99.90
33803;DHT22;20110;53.120;5.786;2022-10-24T03:12:54;13.10;99.90
33803;DHT22;20110;53.120;5.786;2022-10-24T03:15:20;13.20;99.90
33803;DHT22;20110;53.120;5.786;2022-10-24T03:17:46;13.20;99.90
33803;DHT22;20110;53.120;5.786;2022-10-24T03:20:13;13.30;99.90
33803;DHT22;20110;53.120;5.786;2022-10-24T03:22:40;13.30;99.90
33803;DHT22;20110;53.120;5.786;2022-10-24T03:25:06;13.40;99.90
33803;DHT22;20110;53.120;5.786;2022-10-24T03:27:32;13.50;99.90
33803;DHT22;20110;53.120;5.786;2022-10-24T03:30:00;13.50;99.90
33803;DHT22;20110;53.120;5.786;2022-10-24T03:32:26;13.50;99.90
33803;DHT22;20110;53.120;5.786;2022-10-24T03:34:52;13.50;99.90
33803;DHT22;20110;53.120;5.786;2022-10-24T03:37:18;13.50;99.90
33803;DHT22;20110;53.120;5.786;2022-10-24T03:39:44;13.50;99.90
33803;DHT22;20110;53.120;5.786;2022-10-24T03:42:09;13.50;99.90
33803;DHT22;20110;53.120;5.786;2022-10-24T03:44:35;13.50;99.90
33803;DHT22;20110;53.120;5.786;2022-10-24T03:47:01;13.50;99.90
33803;DHT22;20110;53.120;5.786;2022-10-24T03:49:27;13.40;99.90
33803;DHT22;20110;53.120;5.786;2022-10-24T03:51:53;13.30;99.90
33803;DHT22;20110;53.120;5.786;2022-10-24T03:54:19;13.30;99.90
33803;DHT22;20110;53.120;5.786;2022-10-24T03:56:45;13.20;99.90
33803;DHT22;20110;53.120;5.786;2022-10-24T03:59:14;13.20;99.90
33803;DHT22;20110;53.120;5.786;2022-10-24T04:01:41;13.10;99.90
33803;DHT22;20110;53.120;5.786;2022-10-24T04:04:07;13.10;99.90
33803;DHT22;20110;53.120;5.786;2022-10-24T04:06:32;13.00;99.90
33803;DHT22;20110;53.120;5.786;2022-10-24T04:08:58;13.00;99.90
33803;DHT22;20110;53.120;5.786;2022-10-24T04:11:24;13.00;99.90
33803;DHT22;20110;53.120;5.786;2022-10-24T04:13:51;13.00;99.90
33803;DHT22;20110;53.120;5.786;2022-10-24T04:16:18;13.00;99.90
33803;DHT22;20110;53.120;5.786;2022-10-24T04:18:45;13.00;99.90
33803;DHT22;20110;53.120;5.786;2022-10-24T04:21:11;13.00;99.90
33803;DHT22;20110;53.120;5.786;2022-10-24T04:23:37;13.00;99.90
33803;DHT22;20110;53.120;5.786;2022-10-24T04:26:09;13.00;99.90
33803;DHT22;20110;53.120;5.786;2022-10-24T04:28:37;12.90;99.90
33803;DHT22;20110;53.120;5.786;2022-10-24T04:31:03;12.90;99.90
33803;DHT22;20110;53.120;5.786;2022-10-24T04:33:29;12.90;99.90
33803;DHT22;20110;53.120;5.786;2022-10-24T04:35:55;12.90;99.90
33803;DHT22;20110;53.120;5.786;2022-10-24T04:38:22;12.90;99.90
33803;DHT22;20110;53.120;5.786;2022-10-24T04:40:49;12.80;99.90
33803;DHT22;20110;53.120;5.786;2022-10-24T04:43:18;12.90;99.90
33803;DHT22;20110;53.120;5.786;2022-10-24T04:45:46;13.00;99.90
33803;DHT22;20110;53.120;5.786;2022-10-24T04:48:13;13.00;99.90
33803;DHT22;20110;53.120;5.786;2022-10-24T04:50:42;13.10;99.90
33803;DHT22;20110;53.120;5.786;2022-10-24T04:53:09;13.10;99.90
33803;DHT22;20110;53.120;5.786;2022-10-24T04:55:35;13.20;99.90
33803;DHT22;20110;53.120;5.786;2022-10-24T04:58:02;13.30;99.90
33803;DHT22;20110;53.120;5.786;2022-10-24T05:00:28;13.30;99.90
33803;DHT22;20110;53.120;5.786;2022-10-24T05:02:54;13.30;99.90
33803;DHT22;20110;53.120;5.786;2022-10-24T05:05:20;13.50;99.90
33803;DHT22;20110;53.120;5.786;2022-10-24T05:07:46;13.50;99.90
33803;DHT22;20110;53.120;5.786;2022-10-24T05:10:14;13.60;99.90
33803;DHT22;20110;53.120;5.786;2022-10-24T05:12:40;13.70;99.90
33803;DHT22;20110;53.120;5.786;2022-10-24T05:15:08;13.70;99.90
33803;DHT22;20110;53.120;5.786;2022-10-24T05:17:34;13.70;99.90
33803;DHT22;20110;53.120;5.786;2022-10-24T05:20:00;13.60;99.90
33803;DHT22;20110;53.120;5.786;2022-10-24T05:22:26;13.70;99.90
33803;DHT22;20110;53.120;5.786;2022-10-24T05:24:52;13.70;99.90
33803;DHT22;20110;53.120;5.786;2022-10-24T05:27:18;13.70;99.90
33803;DHT22;20110;53.120;5.786;2022-10-24T05:29:50;13.70;99.90
33803;DHT22;20110;53.120;5.786;2022-10-24T05:32:16;13.60;99.90
33803;DHT22;20110;53.120;5.786;2022-10-24T05:34:42;13.60;99.90
33803;DHT22;20110;53.120;5.786;2022-10-24T05:37:08;13.60;99.90
33803;DHT22;20110;53.120;5.786;2022-10-24T05:39:34;13.60;99.90
33803;DHT22;20110;53.120;5.786;2022-10-24T05:42:00;13.70;99.90
33803;DHT22;20110;53.120;5.786;2022-10-24T05:44:26;13.60;99.90
33803;DHT22;20110;53.120;5.786;2022-10-24T05:46:52;13.50;99.90
33803;DHT22;20110;53.120;5.786;2022-10-24T05:49:18;13.50;99.90
33803;DHT22;20110;53.120;5.786;2022-10-24T05:51:44;13.50;99.90
33803;DHT22;20110;53.120;5.786;2022-10-24T05:54:10;13.50;99.90
33803;DHT22;20110;53.120;5.786;2022-10-24T05:56:36;13.40;99.90
33803;DHT22;20110;53.120;5.786;2022-10-24T05:59:02;13.20;99.90
33803;DHT22;20110;53.120;5.786;2022-10-24T06:01:29;13.30;99.90
33803;DHT22;20110;53.120;5.786;2022-10-24T06:03:55;13.20;99.90
33803;DHT22;20110;53.120;5.786;2022-10-24T06:06:21;13.20;99.90
33803;DHT22;20110;53.120;5.786;2022-10-24T06:08:48;13.20;99.90
33803;DHT22;20110;53.120;5.786;2022-10-24T06:11:15;13.30;99.90
33803;DHT22;20110;53.120;5.786;2022-10-24T06:13:41;13.30;99.90
33803;DHT22;20110;53.120;5.786;2022-10-24T06:16:09;13.40;99.90
33803;DHT22;20110;53.120;5.786;2022-10-24T06:18:37;13.40;99.90
33803;DHT22;20110;53.120;5.786;2022-10-24T06:21:06;13.50;99.90
33803;DHT22;20110;53.120;5.786;2022-10-24T06:23:33;13.50;99.90
33803;DHT22;20110;53.120;5.786;2022-10-24T06:25:59;13.50;99.90
33803;DHT22;20110;53.120;5.786;2022-10-24T06:28:25;13.40;99.90
33803;DHT22;20110;53.120;5.786;2022-10-24T06:30:52;13.40;99.90
33803;DHT22;20110;53.120;5.786;2022-10-24T06:33:21;13.40;99.90
33803;DHT22;20110;53.120;5.786;2022-10-24T06:35:47;13.40;99.90
33803;DHT22;20110;53.120;5.786;2022-10-24T06:38:13;13.50;99.90
33803;DHT22;20110;53.120;5.786;2022-10-24T06:40:39;13.50;99.90
33803;DHT22;20110;53.120;5.786;2022-10-24T06:43:07;13.50;99.90
33803;DHT22;20110;53.120;5.786;2022-10-24T06:45:36;13.50;99.90
33803;DHT22;20110;53.120;5.786;2022-10-24T06:48:02;13.40;99.90
33803;DHT22;20110;53.120;5.786;2022-10-24T06:50:28;13.50;99.90
33803;DHT22;20110;53.120;5.786;2022-10-24T06:52:54;13.60;99.90
33803;DHT22;20110;53.120;5.786;2022-10-24T06:55:20;13.60;99.90
33803;DHT22;20110;53.120;5.786;2022-10-24T06:57:47;13.70;99.90
33803;DHT22;20110;53.120;5.786;2022-10-24T07:00:13;13.80;99.90
33803;DHT22;20110;53.120;5.786;2022-10-24T07:02:39;13.70;99.90
33803;DHT22;20110;53.120;5.786;2022-10-24T07:05:06;13.70;99.90
33803;DHT22;20110;53.120;5.786;2022-10-24T07:07:37;13.80;99.90
33803;DHT22;20110;53.120;5.786;2022-10-24T07:10:06;13.90;99.90
33803;DHT22;20110;53.120;5.786;2022-10-24T07:12:32;13.80;99.90
33803;DHT22;20110;53.120;5.786;2022-10-24T07:14:58;13.80;99.90
33803;DHT22;20110;53.120;5.786;2022-10-24T07:17:24;13.90;99.90
33803;DHT22;20110;53.120;5.786;2022-10-24T07:19:54;13.80;99.90
33803;DHT22;20110;53.120;5.786;2022-10-24T07:22:21;13.60;99.90
33803;DHT22;20110;53.120;5.786;2022-10-24T07:24:52;13.70;99.90
33803;DHT22;20110;53.120;5.786;2022-10-24T07:27:19;13.70;99.90
33803;DHT22;20110;53.120;5.786;2022-10-24T07:29:45;13.60;99.90
33803;DHT22;20110;53.120;5.786;2022-10-24T07:32:11;13.60;99.90
33803;DHT22;20110;53.120;5.786;2022-10-24T07:34:38;13.70;99.90
33803;DHT22;20110;53.120;5.786;2022-10-24T07:37:05;13.70;99.90
33803;DHT22;20110;53.120;5.786;2022-10-24T07:39:31;13.70;99.90
33803;DHT22;20110;53.120;5.786;2022-10-24T07:41:57;13.60;99.90
33803;DHT22;20110;53.120;5.786;2022-10-24T07:44:23;13.80;99.90
33803;DHT22;20110;53.120;5.786;2022-10-24T07:46:49;13.70;99.90
33803;DHT22;20110;53.120;5.786;2022-10-24T07:49:15;13.70;99.90
33803;DHT22;20110;53.120;5.786;2022-10-24T07:51:41;13.70;99.90
33803;DHT22;20110;53.120;5.786;2022-10-24T07:54:08;13.60;99.90
33803;DHT22;20110;53.120;5.786;2022-10-24T07:56:34;13.70;99.90
33803;DHT22;20110;53.120;5.786;2022-10-24T07:59:00;13.70;99.90
33803;DHT22;20110;53.120;5.786;2022-10-24T08:01:27;13.80;99.90
33803;DHT22;20110;53.120;5.786;2022-10-24T08:03:54;13.80;99.90
33803;DHT22;20110;53.120;5.786;2022-10-24T08:06:23;13.80;99.90
33803;DHT22;20110;53.120;5.786;2022-10-24T08:08:52;13.70;99.90
33803;DHT22;20110;53.120;5.786;2022-10-24T08:11:21;13.60;99.90
33803;DHT22;20110;53.120;5.786;2022-10-24T08:13:49;13.70;99.90
33803;DHT22;20110;53.120;5.786;2022-10-24T08:16:18;13.70;99.90
33803;DHT22;20110;53.120;5.786;2022-10-24T08:18:49;13.80;99.90
33803;DHT22;20110;53.120;5.786;2022-10-24T08:21:17;13.70;99.90
33803;DHT22;20110;53.120;5.786;2022-10-24T08:23:46;13.70;99.90
33803;DHT22;20110;53.120;5.786;2022-10-24T08:26:15;13.80;99.90
33803;DHT22;20110;53.120;5.786;2022-10-24T08:28:44;13.80;99.90
33803;DHT22;20110;53.120;5.786;2022-10-24T08:31:18;13.80;99.90
33803;DHT22;20110;53.120;5.786;2022-10-24T08:33:47;13.90;99.90
33803;DHT22;20110;53.120;5.786;2022-10-24T08:36:29;13.90;99.90
33803;DHT22;20110;53.120;5.786;2022-10-24T08:38:58;13.90;99.90
33803;DHT22;20110;53.120;5.786;2022-10-24T08:41:29;13.90;99.90
33803;DHT22;20110;53.120;5.786;2022-10-24T08:44:05;13.90;99.90
33803;DHT22;20110;53.120;5.786;2022-10-24T08:47:12;13.90;99.90
33803;DHT22;20110;53.120;5.786;2022-10-24T08:55:39;13.90;99.90
33803;DHT22;20110;53.120;5.786;2022-10-24T08:58:36;14.00;99.90
33803;DHT22;20110;53.120;5.786;2022-10-24T09:04:13;14.20;99.90
33803;DHT22;20110;53.120;5.786;2022-10-24T09:06:45;14.30;99.90
33803;DHT22;20110;53.120;5.786;2022-10-24T09:12:16;14.30;99.90
33803;DHT22;20110;53.120;5.786;2022-10-24T09:14:46;14.40;99.90
33803;DHT22;20110;53.120;5.786;2022-10-24T09:17:31;14.40;99.90
33803;DHT22;20110;53.120;5.786;2022-10-24T09:20:12;14.30;99.90
33803;DHT22;20110;53.120;5.786;2022-10-24T09:22:56;14.50;99.90
33803;DHT22;20110;53.120;5.786;2022-10-24T09:25:29;14.30;99.90
33803;DHT22;20110;53.120;5.786;2022-10-24T09:28:02;14.50;99.90
33803;DHT22;20110;53.120;5.786;2022-10-24T09:30:29;14.60;99.90
33803;DHT22;20110;53.120;5.786;2022-10-24T09:32:58;14.50;99.90
33803;DHT22;20110;53.120;5.786;2022-10-24T09:35:43;14.20;99.90
33803;DHT22;20110;53.120;5.786;2022-10-24T09:38:35;14.30;99.90
33803;DHT22;20110;53.120;5.786;2022-10-24T09:41:16;14.30;99.90
33803;DHT22;20110;53.120;5.786;2022-10-24T09:43:59;14.10;99.90
33803;DHT22;20110;53.120;5.786;2022-10-24T09:46:38;13.70;99.90
33803;DHT22;20110;53.120;5.786;2022-10-24T09:51:57;13.70;99.90
33803;DHT22;20110;53.120;5.786;2022-10-24T09:54:29;13.60;99.90
33803;DHT22;20110;53.120;5.786;2022-10-24T09:57:10;13.40;99.90
33803;DHT22;20110;53.120;5.786;2022-10-24T10:00:21;13.60;99.90
33803;DHT22;20110;53.120;5.786;2022-10-24T10:05:48;14.00;99.90
33803;DHT22;20110;53.120;5.786;2022-10-24T10:08:21;14.20;99.90
33803;DHT22;20110;53.120;5.786;2022-10-24T10:11:04;14.30;99.90
33803;DHT22;20110;53.120;5.786;2022-10-24T10:13:50;14.50;99.90
33803;DHT22;20110;53.120;5.786;2022-10-24T10:16:38;14.70;99.90
33803;DHT22;20110;53.120;5.786;2022-10-24T10:19:15;15.00;99.90
33803;DHT22;20110;53.120;5.786;2022-10-24T10:22:01;14.70;99.90
33803;DHT22;20110;53.120;5.786;2022-10-24T10:24:39;14.70;99.90
33803;DHT22;20110;53.120;5.786;2022-10-24T10:27:33;14.90;99.90
33803;DHT22;20110;53.120;5.786;2022-10-24T10:30:13;15.00;99.90
33803;DHT22;20110;53.120;5.786;2022-10-24T10:45:30;15.60;99.90
33803;DHT22;20110;53.120;5.786;2022-10-24T10:56:48;15.80;99.90
33803;DHT22;20110;53.120;5.786;2022-10-24T10:59:22;15.80;99.90
33803;DHT22;20110;53.120;5.786;2022-10-24T11:04:57;15.50;99.90
33803;DHT22;20110;53.120;5.786;2022-10-24T11:10:34;15.30;99.90
33803;DHT22;20110;53.120;5.786;2022-10-24T11:13:22;15.40;99.90
33803;DHT22;20110;53.120;5.786;2022-10-24T11:16:15;15.50;99.90
33803;DHT22;20110;53.120;5.786;2022-10-24T11:18:49;15.90;99.90
33803;DHT22;20110;53.120;5.786;2022-10-24T11:21:20;16.10;99.90
33803;DHT22;20110;53.120;5.786;2022-10-24T11:26:25;15.60;99.90
33803;DHT22;20110;53.120;5.786;2022-10-24T11:29:08;15.60;99.90
33803;DHT22;20110;53.120;5.786;2022-10-24T11:31:44;15.60;99.90
33803;DHT22;20110;53.120;5.786;2022-10-24T11:37:08;15.30;99.90
33803;DHT22;20110;53.120;5.786;2022-10-24T11:42:30;15.50;99.90
33803;DHT22;20110;53.120;5.786;2022-10-24T11:45:18;15.30;99.90
33803;DHT22;20110;53.120;5.786;2022-10-24T11:53:11;14.50;99.90
33803;DHT22;20110;53.120;5.786;2022-10-24T11:55:45;14.30;99.90
33803;DHT22;20110;53.120;5.786;2022-10-24T11:58:20;14.20;99.90
33803;DHT22;20110;53.120;5.786;2022-10-24T12:00:56;14.10;99.90
33803;DHT22;20110;53.120;5.786;2022-10-24T12:06:34;14.20;99.90
33803;DHT22;20110;53.120;5.786;2022-10-24T12:15:42;13.80;99.90
33803;DHT22;20110;53.120;5.786;2022-10-24T12:18:29;14.20;99.90
33803;DHT22;20110;53.120;5.786;2022-10-24T12:21:08;14.30;99.90
33803;DHT22;20110;53.120;5.786;2022-10-24T12:23:39;14.10;99.90
33803;DHT22;20110;53.120;5.786;2022-10-24T12:26:18;13.90;99.90
33803;DHT22;20110;53.120;5.786;2022-10-24T12:29:19;13.80;99.90
33803;DHT22;20110;53.120;5.786;2022-10-24T12:31:45;14.00;99.90
33803;DHT22;20110;53.120;5.786;2022-10-24T12:37:30;13.70;99.90
33803;DHT22;20110;53.120;5.786;2022-10-24T12:39:58;13.60;99.90
33803;DHT22;20110;53.120;5.786;2022-10-24T12:49:58;14.00;99.90
33803;DHT22;20110;53.120;5.786;2022-10-24T12:58:29;14.50;99.90
33803;DHT22;20110;53.120;5.786;2022-10-24T13:01:11;14.30;99.90
33803;DHT22;20110;53.120;5.786;2022-10-24T13:10:03;13.90;99.90
33803;DHT22;20110;53.120;5.786;2022-10-24T13:12:57;14.00;99.90
33803;DHT22;20110;53.120;5.786;2022-10-24T13:21:53;14.10;99.90
33803;DHT22;20110;53.120;5.786;2022-10-24T13:24:31;14.00;99.90
33803;DHT22;20110;53.120;5.786;2022-10-24T13:35:08;13.30;99.90
33803;DHT22;20110;53.120;5.786;2022-10-24T13:37:46;13.00;99.90
33803;DHT22;20110;53.120;5.786;2022-10-24T13:40:30;12.70;99.90
33803;DHT22;20110;53.120;5.786;2022-10-24T13:43:04;12.70;99.90
33803;DHT22;20110;53.120;5.786;2022-10-24T13:45:47;12.50;99.90
33803;DHT22;20110;53.120;5.786;2022-10-24T13:48:24;12.40;99.90
33803;DHT22;20110;53.120;5.786;2022-10-24T13:51:07;12.40;99.90
33803;DHT22;20110;53.120;5.786;2022-10-24T13:53:48;12.30;99.90
33803;DHT22;20110;53.120;5.786;2022-10-24T13:56:18;12.30;99.90
33803;DHT22;20110;53.120;5.786;2022-10-24T13:58:44;12.30;99.90
33803;DHT22;20110;53.120;5.786;2022-10-24T14:01:20;12.30;99.90
33803;DHT22;20110;53.120;5.786;2022-10-24T14:03:51;12.30;99.90
33803;DHT22;20110;53.120;5.786;2022-10-24T14:06:31;12.20;99.90
33803;DHT22;20110;53.120;5.786;2022-10-24T14:09:03;12.00;99.90
33803;DHT22;20110;53.120;5.786;2022-10-24T14:11:39;11.90;99.90
33803;DHT22;20110;53.120;5.786;2022-10-24T14:14:27;12.00;99.90
33803;DHT22;20110;53.120;5.786;2022-10-24T14:17:15;12.00;99.90
33803;DHT22;20110;53.120;5.786;2022-10-24T14:19:56;12.20;99.90
33803;DHT22;20110;53.120;5.786;2022-10-24T14:22:27;12.30;99.90
33803;DHT22;20110;53.120;5.786;2022-10-24T14:24:55;12.40;99.90
33803;DHT22;20110;53.120;5.786;2022-10-24T14:27:22;12.40;99.90
33803;DHT22;20110;53.120;5.786;2022-10-24T14:29:57;12.50;99.90
33803;DHT22;20110;53.120;5.786;2022-10-24T14:32:28;12.50;99.90
33803;DHT22;20110;53.120;5.786;2022-10-24T14:34:56;12.60;99.90
33803;DHT22;20110;53.120;5.786;2022-10-24T14:37:33;12.70;99.90
33803;DHT22;20110;53.120;5.786;2022-10-24T14:40:01;12.70;99.90
33803;DHT22;20110;53.120;5.786;2022-10-24T14:42:29;12.70;99.90
33803;DHT22;20110;53.120;5.786;2022-10-24T14:44:55;12.70;99.90
33803;DHT22;20110;53.120;5.786;2022-10-24T14:49:54;12.80;99.90
33803;DHT22;20110;53.120;5.786;2022-10-24T14:52:29;12.80;99.90
33803;DHT22;20110;53.120;5.786;2022-10-24T14:55:04;12.70;99.90
33803;DHT22;20110;53.120;5.786;2022-10-24T14:57:46;12.70;99.90
33803;DHT22;20110;53.120;5.786;2022-10-24T15:00:25;12.70;99.90
33803;DHT22;20110;53.120;5.786;2022-10-24T15:02:56;12.70;99.90
33803;DHT22;20110;53.120;5.786;2022-10-24T15:08:17;12.70;99.90
33803;DHT22;20110;53.120;5.786;2022-10-24T15:11:03;12.80;99.90
33803;DHT22;20110;53.120;5.786;2022-10-24T15:13:51;12.90;99.90
33803;DHT22;20110;53.120;5.786;2022-10-24T15:18:47;12.90;99.90
33803;DHT22;20110;53.120;5.786;2022-10-24T15:21:18;12.90;99.90
33803;DHT22;20110;53.120;5.786;2022-10-24T15:23:55;12.80;99.90
33803;DHT22;20110;53.120;5.786;2022-10-24T15:26:34;12.90;99.90
33803;DHT22;20110;53.120;5.786;2022-10-24T15:29:20;12.90;99.90
33803;DHT22;20110;53.120;5.786;2022-10-24T15:31:48;12.80;99.90
33803;DHT22;20110;53.120;5.786;2022-10-24T15:34:21;12.70;99.90
33803;DHT22;20110;53.120;5.786;2022-10-24T15:36:50;12.80;99.90
33803;DHT22;20110;53.120;5.786;2022-10-24T15:39:20;12.70;99.90
33803;DHT22;20110;53.120;5.786;2022-10-24T15:41:49;12.70;99.90
33803;DHT22;20110;53.120;5.786;2022-10-24T15:44:28;12.60;99.90
33803;DHT22;20110;53.120;5.786;2022-10-24T15:46:54;12.70;99.90
33803;DHT22;20110;53.120;5.786;2022-10-24T15:49:20;12.60;99.90
33803;DHT22;20110;53.120;5.786;2022-10-24T15:51:47;12.70;99.90
33803;DHT22;20110;53.120;5.786;2022-10-24T15:54:17;12.60;99.90
33803;DHT22;20110;53.120;5.786;2022-10-24T15:56:44;12.60;99.90
33803;DHT22;20110;53.120;5.786;2022-10-24T15:59:10;12.60;99.90
33803;DHT22;20110;53.120;5.786;2022-10-24T16:01:42;12.60;99.90
33803;DHT22;20110;53.120;5.786;2022-10-24T16:04:13;12.60;99.90
33803;DHT22;20110;53.120;5.786;2022-10-24T16:06:39;12.60;99.90
33803;DHT22;20110;53.120;5.786;2022-10-24T16:09:09;12.50;99.90
33803;DHT22;20110;53.120;5.786;2022-10-24T16:11:39;12.50;99.90
33803;DHT22;20110;53.120;5.786;2022-10-24T16:14:06;12.40;99.90
33803;DHT22;20110;53.120;5.786;2022-10-24T16:16:32;12.40;99.90
33803;DHT22;20110;53.120;5.786;2022-10-24T16:18:57;12.40;99.90
33803;DHT22;20110;53.120;5.786;2022-10-24T16:21:23;12.40;99.90
33803;DHT22;20110;53.120;5.786;2022-10-24T16:23:49;12.40;99.90
33803;DHT22;20110;53.120;5.786;2022-10-24T16:26:15;12.30;99.90
33803;DHT22;20110;53.120;5.786;2022-10-24T16:28:41;12.30;99.90
33803;DHT22;20110;53.120;5.786;2022-10-24T16:31:07;12.30;99.90
33803;DHT22;20110;53.120;5.786;2022-10-24T16:33:33;12.30;99.90
33803;DHT22;20110;53.120;5.786;2022-10-24T16:35:59;12.20;99.90
33803;DHT22;20110;53.120;5.786;2022-10-24T16:38:25;12.20;99.90
33803;DHT22;20110;53.120;5.786;2022-10-24T16:40:51;12.20;99.90
33803;DHT22;20110;53.120;5.786;2022-10-24T16:43:18;12.10;99.90
33803;DHT22;20110;53.120;5.786;2022-10-24T16:45:53;12.10;99.90
33803;DHT22;20110;53.120;5.786;2022-10-24T16:48:25;12.00;99.90
33803;DHT22;20110;53.120;5.786;2022-10-24T16:50:52;11.90;99.90
33803;DHT22;20110;53.120;5.786;2022-10-24T16:53:18;11.80;99.90
33803;DHT22;20110;53.120;5.786;2022-10-24T16:55:49;11.70;99.90
33803;DHT22;20110;53.120;5.786;2022-10-24T16:58:17;11.80;99.90
33803;DHT22;20110;53.120;5.786;2022-10-24T17:00:44;11.80;99.90
33803;DHT22;20110;53.120;5.786;2022-10-24T17:03:10;11.90;99.90
33803;DHT22;20110;53.120;5.786;2022-10-24T17:05:36;11.90;99.90
33803;DHT22;20110;53.120;5.786;2022-10-24T17:08:02;11.90;99.90
33803;DHT22;20110;53.120;5.786;2022-10-24T17:10:28;11.90;99.90
33803;DHT22;20110;53.120;5.786;2022-10-24T17:12:54;12.00;99.90
33803;DHT22;20110;53.120;5.786;2022-10-24T17:15:21;11.90;99.90
33803;DHT22;20110;53.120;5.786;2022-10-24T17:17:47;11.80;99.90
33803;DHT22;20110;53.120;5.786;2022-10-24T17:20:13;11.70;99.90
33803;DHT22;20110;53.120;5.786;2022-10-24T17:22:42;11.60;99.90
33803;DHT22;20110;53.120;5.786;2022-10-24T17:25:27;11.50;99.90
33803;DHT22;20110;53.120;5.786;2022-10-24T17:27:54;11.50;99.90
33803;DHT22;20110;53.120;5.786;2022-10-24T17:30:23;11.50;99.90
33803;DHT22;20110;53.120;5.786;2022-10-24T17:32:51;11.40;99.90
33803;DHT22;20110;53.120;5.786;2022-10-24T17:35:19;11.40;99.90
33803;DHT22;20110;53.120;5.786;2022-10-24T17:40:41;11.40;99.90
33803;DHT22;20110;53.120;5.786;2022-10-24T17:43:21;11.30;99.90
33803;DHT22;20110;53.120;5.786;2022-10-24T17:45:51;11.30;99.90
33803;DHT22;20110;53.120;5.786;2022-10-24T17:48:18;11.30;99.90
33803;DHT22;20110;53.120;5.786;2022-10-24T17:50:44;11.30;99.90
33803;DHT22;20110;53.120;5.786;2022-10-24T17:53:12;11.30;99.90
33803;DHT22;20110;53.120;5.786;2022-10-24T17:55:38;11.30;99.90
33803;DHT22;20110;53.120;5.786;2022-10-24T17:58:04;11.20;99.90
33803;DHT22;20110;53.120;5.786;2022-10-24T18:00:30;11.20;99.90
33803;DHT22;20110;53.120;5.786;2022-10-24T18:02:56;11.20;99.90
33803;DHT22;20110;53.120;5.786;2022-10-24T18:05:22;11.20;99.90
33803;DHT22;20110;53.120;5.786;2022-10-24T18:07:48;11.20;99.90
33803;DHT22;20110;53.120;5.786;2022-10-24T18:10:16;11.10;99.90
33803;DHT22;20110;53.120;5.786;2022-10-24T18:12:43;11.10;99.90
33803;DHT22;20110;53.120;5.786;2022-10-24T18:15:12;11.10;99.90
33803;DHT22;20110;53.120;5.786;2022-10-24T18:17:40;11.10;99.90
33803;DHT22;20110;53.120;5.786;2022-10-24T18:20:08;11.10;99.90